KLM589 EHAM-DGAA
Flight info
| Callsign | KLM589 |
|---|---|
| Flight time | N/A |
| Altitude | 23000 |
| Route | WOODY N872 CIV/N0482F350 N872 MEDIL DCT KOVIN DCT DUCRA DCT RESMI DCT DEKOD DCT DISAK DCT DIRMO/N0482F370 DCT ETAMO DCT ADEKA DCT MOKDI DCT MEN DCT BADAM DCT KANIG DCT KENAS DCT POS N855 GENIO DCT MOGIL UB31 ZEM/N0484F360 UZ333 KAHIL/N0481F380 UB726 GHA/N0484F370 UA615 TMS UA604 EREBO/N0490F380 DCT MIGNI DCT ABALA DCT IPUTA DCT TATAT DCT KILMO DCT LITEX LITEX1B |
| Aircraft | B77W/H-SDE1E2E3FGHIJ2J3J4J5M1RWXY/LB1D1 |
Departure
| Time | 2026-05-01 14:37 |
|---|---|
| Airport | Amsterdam Airport Schiphol (EHAM) |
Arrival
| Time | N/A |
|---|---|
| Airport | Kotoka International Airport (DGAA) |
| Time | Latitude | Longitude | Altitude | Speed | Heading |
|---|---|---|---|---|---|
| 2026-05-01 13:55 | 52.31379 | 4.76290 | 5 ft | 0 kts | 206° |
| 2026-05-01 14:23 | 52.31397 | 4.76306 | 5 ft | 4 kts | 207° |
| 2026-05-01 14:23 | 52.31421 | 4.76326 | 6 ft | 4 kts | 207° |
| 2026-05-01 14:23 | 52.31443 | 4.76345 | 5 ft | 2 kts | 207° |
| 2026-05-01 14:24 | 52.31460 | 4.76369 | 6 ft | 4 kts | 257° |
| 2026-05-01 14:24 | 52.31462 | 4.76413 | 4 ft | 4 kts | 269° |
| 2026-05-01 14:24 | 52.31462 | 4.76426 | 4 ft | 0 kts | 266° |
| 2026-05-01 14:31 | 52.31462 | 4.76420 | 4 ft | 1 kts | 266° |
| 2026-05-01 14:31 | 52.31462 | 4.76411 | 4 ft | 1 kts | 266° |
| 2026-05-01 14:31 | 52.31461 | 4.76392 | 7 ft | 3 kts | 266° |
| 2026-05-01 14:31 | 52.31459 | 4.76343 | 6 ft | 6 kts | 266° |
| 2026-05-01 14:32 | 52.31456 | 4.76264 | 4 ft | 8 kts | 266° |
| 2026-05-01 14:32 | 52.31453 | 4.76195 | 4 ft | 10 kts | 266° |
| 2026-05-01 14:32 | 52.31447 | 4.76020 | 4 ft | 13 kts | 266° |
| 2026-05-01 14:32 | 52.31483 | 4.75911 | 4 ft | 11 kts | 350° |
| 2026-05-01 14:33 | 52.31529 | 4.75996 | 4 ft | 12 kts | 82° |
| 2026-05-01 14:33 | 52.31536 | 4.76137 | 4 ft | 13 kts | 88° |
| 2026-05-01 14:33 | 52.31540 | 4.76300 | 4 ft | 15 kts | 88° |
| 2026-05-01 14:33 | 52.31543 | 4.76419 | 4 ft | 16 kts | 86° |
| 2026-05-01 14:34 | 52.31551 | 4.76607 | 4 ft | 18 kts | 86° |
| 2026-05-01 14:34 | 52.31558 | 4.76815 | 4 ft | 19 kts | 86° |
| 2026-05-01 14:34 | 52.31566 | 4.77038 | 4 ft | 20 kts | 87° |
| 2026-05-01 14:34 | 52.31577 | 4.77274 | 4 ft | 21 kts | 77° |
| 2026-05-01 14:35 | 52.31652 | 4.77481 | 3 ft | 22 kts | 57° |
| 2026-05-01 14:35 | 52.31750 | 4.77674 | 3 ft | 23 kts | 22° |
| 2026-05-01 14:35 | 52.31865 | 4.77698 | 3 ft | 11 kts | 2° |
| 2026-05-01 14:35 | 52.31943 | 4.77704 | 4 ft | 12 kts | 3° |
| 2026-05-01 14:36 | 52.32026 | 4.77749 | 4 ft | 13 kts | 38° |
| 2026-05-01 14:36 | 52.32101 | 4.77855 | 4 ft | 15 kts | 42° |
| 2026-05-01 14:36 | 52.32105 | 4.78008 | 4 ft | 14 kts | 140° |
| 2026-05-01 14:36 | 52.32006 | 4.78017 | 4 ft | 15 kts | 184° |
| 2026-05-01 14:37 | 52.31863 | 4.77998 | 3 ft | 33 kts | 185° |
| 2026-05-01 14:37 | 52.31417 | 4.77961 | 5 ft | 114 kts | 183° |
| 2026-05-01 14:37 | 52.30261 | 4.77852 | 117 ft | 210 kts | 181° |
| 2026-05-01 14:37 | 52.28795 | 4.77681 | 1703 ft | 205 kts | 183° |
| 2026-05-01 14:38 | 52.27465 | 4.77547 | 3800 ft | 188 kts | 182° |
| 2026-05-01 14:38 | 52.26221 | 4.77736 | 5063 ft | 183 kts | 158° |
| 2026-05-01 14:38 | 52.25122 | 4.78644 | 5848 ft | 177 kts | 160° |
| 2026-05-01 14:38 | 52.23932 | 4.79359 | 6110 ft | 203 kts | 163° |
| 2026-05-01 14:39 | 52.22490 | 4.80113 | 6377 ft | 232 kts | 164° |
| 2026-05-01 14:39 | 52.20910 | 4.80832 | 6816 ft | 246 kts | 175° |
| 2026-05-01 14:39 | 52.19177 | 4.80678 | 7414 ft | 256 kts | 187° |
| 2026-05-01 14:39 | 52.17377 | 4.80335 | 8249 ft | 263 kts | 186° |
| 2026-05-01 14:40 | 52.15552 | 4.80035 | 9206 ft | 266 kts | 185° |
| 2026-05-01 14:40 | 52.13702 | 4.79747 | 10203 ft | 268 kts | 185° |
| 2026-05-01 14:40 | 52.11814 | 4.79463 | 10930 ft | 279 kts | 184° |
| 2026-05-01 14:40 | 52.09785 | 4.79168 | 11178 ft | 308 kts | 184° |
| 2026-05-01 14:41 | 52.07552 | 4.78849 | 11407 ft | 337 kts | 184° |
| 2026-05-01 14:41 | 52.05144 | 4.78509 | 11917 ft | 354 kts | 184° |
| 2026-05-01 14:41 | 52.02668 | 4.78160 | 12716 ft | 360 kts | 184° |
| 2026-05-01 14:41 | 52.00156 | 4.77808 | 13244 ft | 365 kts | 184° |
| 2026-05-01 14:42 | 51.97607 | 4.77454 | 13222 ft | 367 kts | 184° |
| 2026-05-01 14:42 | 51.95072 | 4.77102 | 13224 ft | 366 kts | 184° |
| 2026-05-01 14:42 | 51.92544 | 4.76649 | 13212 ft | 365 kts | 190° |
| 2026-05-01 14:42 | 51.90164 | 4.75179 | 13224 ft | 366 kts | 206° |
| 2026-05-01 14:43 | 51.87887 | 4.73237 | 13232 ft | 374 kts | 205° |
| 2026-05-01 14:43 | 51.85547 | 4.71356 | 13225 ft | 374 kts | 204° |
| 2026-05-01 14:43 | 51.83210 | 4.69526 | 13217 ft | 370 kts | 204° |
| 2026-05-01 14:43 | 51.80901 | 4.67732 | 13207 ft | 368 kts | 204° |
| 2026-05-01 14:44 | 51.78588 | 4.65937 | 13216 ft | 368 kts | 204° |
| 2026-05-01 14:44 | 51.73971 | 4.62351 | 13221 ft | 369 kts | 204° |
| 2026-05-01 14:44 | 51.71656 | 4.60554 | 13220 ft | 369 kts | 204° |
| 2026-05-01 14:45 | 51.69335 | 4.58754 | 13216 ft | 370 kts | 204° |
| 2026-05-01 14:45 | 51.64695 | 4.55162 | 13222 ft | 371 kts | 204° |
| 2026-05-01 14:45 | 51.62362 | 4.53356 | 13212 ft | 371 kts | 204° |
| 2026-05-01 14:46 | 51.60036 | 4.51558 | 13213 ft | 371 kts | 204° |
| 2026-05-01 14:46 | 51.55372 | 4.47958 | 13209 ft | 371 kts | 204° |
| 2026-05-01 14:46 | 51.53045 | 4.46164 | 13213 ft | 371 kts | 204° |
| 2026-05-01 14:47 | 51.50718 | 4.44372 | 13212 ft | 371 kts | 204° |
| 2026-05-01 14:47 | 51.48388 | 4.42580 | 13209 ft | 370 kts | 204° |
| 2026-05-01 14:47 | 51.46061 | 4.40790 | 13338 ft | 373 kts | 204° |
| 2026-05-01 14:48 | 51.41322 | 4.37156 | 15191 ft | 380 kts | 204° |
| 2026-05-01 14:48 | 51.38928 | 4.35337 | 16096 ft | 384 kts | 203° |
| 2026-05-01 14:48 | 51.33968 | 4.31641 | 17772 ft | 396 kts | 203° |
| 2026-05-01 14:49 | 51.28903 | 4.27845 | 19338 ft | 407 kts | 204° |
| 2026-05-01 14:49 | 51.23735 | 4.23898 | 20784 ft | 417 kts | 204° |
| 2026-05-01 14:50 | 51.20168 | 4.21183 | 21725 ft | 424 kts | 204° |
| 2026-05-01 14:50 | 51.12835 | 4.16265 | 23538 ft | 435 kts | 197° |
| 2026-05-01 14:51 | 51.09949 | 4.14734 | 24137 ft | 440 kts | 197° |
| 2026-05-01 14:51 | 51.04099 | 4.11608 | 25302 ft | 446 kts | 198° |
| 2026-05-01 14:52 | 50.98179 | 4.08393 | 26425 ft | 453 kts | 198° |
| 2026-05-01 14:52 | 50.95184 | 4.06759 | 26942 ft | 457 kts | 198° |
| 2026-05-01 14:52 | 50.89123 | 4.03465 | 27958 ft | 464 kts | 198° |
| 2026-05-01 14:53 | 50.86080 | 4.01692 | 28457 ft | 467 kts | 201° |
| 2026-05-01 14:53 | 50.83061 | 3.99751 | 28916 ft | 471 kts | 201° |
| 2026-05-01 14:53 | 50.80227 | 3.97912 | 29319 ft | 474 kts | 201° |
| 2026-05-01 14:53 | 50.77058 | 3.95859 | 29736 ft | 477 kts | 201° |
| 2026-05-01 14:54 | 50.73926 | 3.93841 | 30127 ft | 480 kts | 201° |
| 2026-05-01 14:54 | 50.70873 | 3.91883 | 30509 ft | 481 kts | 201° |
| 2026-05-01 14:54 | 50.67777 | 3.89906 | 31003 ft | 479 kts | 201° |
| 2026-05-01 14:54 | 50.64723 | 3.87958 | 31531 ft | 476 kts | 201° |
| 2026-05-01 14:55 | 50.61626 | 3.85987 | 32074 ft | 473 kts | 201° |
| 2026-05-01 14:55 | 50.58578 | 3.84050 | 32546 ft | 472 kts | 201° |
| 2026-05-01 14:55 | 50.55589 | 3.82123 | 33027 ft | 470 kts | 202° |
| 2026-05-01 14:55 | 50.52552 | 3.80067 | 33482 ft | 469 kts | 202° |
| 2026-05-01 14:56 | 50.49568 | 3.78004 | 33901 ft | 468 kts | 203° |
| 2026-05-01 14:56 | 50.46634 | 3.75974 | 34305 ft | 467 kts | 202° |
| 2026-05-01 14:56 | 50.43630 | 3.73909 | 34648 ft | 466 kts | 202° |
| 2026-05-01 14:56 | 50.40658 | 3.71881 | 34965 ft | 465 kts | 202° |
| 2026-05-01 14:57 | 50.37700 | 3.69872 | 35279 ft | 465 kts | 202° |
| 2026-05-01 14:57 | 50.31791 | 3.65871 | 36115 ft | 459 kts | 202° |
| 2026-05-01 14:57 | 50.28851 | 3.63884 | 36226 ft | 462 kts | 202° |
| 2026-05-01 14:58 | 50.22927 | 3.59888 | 36214 ft | 463 kts | 202° |
| 2026-05-01 14:58 | 50.17048 | 3.55928 | 36207 ft | 459 kts | 202° |
| 2026-05-01 14:59 | 50.11201 | 3.52000 | 36215 ft | 457 kts | 201° |
| 2026-05-01 14:59 | 50.05354 | 3.48085 | 36217 ft | 457 kts | 201° |
| 2026-05-01 15:00 | 49.96609 | 3.42248 | 36220 ft | 458 kts | 201° |
| 2026-05-01 15:01 | 49.90758 | 3.38356 | 36220 ft | 459 kts | 201° |
| 2026-05-01 15:01 | 49.84866 | 3.34445 | 36215 ft | 460 kts | 201° |
| 2026-05-01 15:02 | 49.78958 | 3.30535 | 36213 ft | 461 kts | 201° |
| 2026-05-01 15:02 | 49.73065 | 3.26644 | 36212 ft | 462 kts | 201° |
| 2026-05-01 15:03 | 49.67139 | 3.22743 | 36213 ft | 462 kts | 201° |
| 2026-05-01 15:03 | 49.61224 | 3.18858 | 36208 ft | 462 kts | 201° |
| 2026-05-01 15:04 | 49.55305 | 3.14980 | 36200 ft | 461 kts | 201° |
| 2026-05-01 15:04 | 49.49418 | 3.11054 | 36198 ft | 462 kts | 204° |
| 2026-05-01 15:05 | 49.44823 | 3.06902 | 36205 ft | 464 kts | 211° |
| 2026-05-01 15:05 | 49.39469 | 3.01370 | 36187 ft | 463 kts | 211° |
| 2026-05-01 15:06 | 49.34120 | 2.95911 | 36213 ft | 462 kts | 211° |
| 2026-05-01 15:06 | 49.28747 | 2.90479 | 36195 ft | 462 kts | 211° |
| 2026-05-01 15:07 | 49.23373 | 2.85068 | 36205 ft | 462 kts | 211° |
| 2026-05-01 15:07 | 49.18031 | 2.79700 | 36188 ft | 462 kts | 211° |
| 2026-05-01 15:08 | 49.12664 | 2.74321 | 36184 ft | 462 kts | 211° |
| 2026-05-01 15:08 | 49.07289 | 2.68947 | 36184 ft | 461 kts | 211° |
| 2026-05-01 15:09 | 49.01925 | 2.63598 | 36207 ft | 462 kts | 211° |
| 2026-05-01 15:09 | 48.96540 | 2.58242 | 36189 ft | 463 kts | 211° |
| 2026-05-01 15:10 | 48.91136 | 2.52881 | 36187 ft | 463 kts | 211° |
| 2026-05-01 15:10 | 48.83045 | 2.44874 | 36188 ft | 464 kts | 211° |
| 2026-05-01 15:11 | 48.74910 | 2.36851 | 36182 ft | 465 kts | 211° |
| 2026-05-01 15:12 | 48.69474 | 2.31509 | 36188 ft | 465 kts | 211° |
| 2026-05-01 15:12 | 48.61337 | 2.23538 | 36188 ft | 465 kts | 211° |
| 2026-05-01 15:13 | 48.52824 | 2.17884 | 36198 ft | 461 kts | 195° |
| 2026-05-01 15:14 | 48.46573 | 2.15805 | 36204 ft | 460 kts | 191° |
| 2026-05-01 15:14 | 48.37136 | 2.12840 | 36192 ft | 464 kts | 192° |
| 2026-05-01 15:15 | 48.24323 | 2.10848 | 36200 ft | 470 kts | 176° |